Time;durP1;ratioP1;P1;durP2;ratioP2;P2;SDS_P1;SDS_P2;PMS_P1;PMS_P2;Temp;Humidity;BMP_temperature;BMP_pressure;BME280_temperature;BME280_humidity;BME280_pressure;Samples;Min_cycle;Max_cycle;Signal;HPM_P1;HPM_P2
2022/02/04 00:05:56;;;;;;;28.88;13.07;;;;;;;7.13;100.00;101318.88;5272136;28;20103;-77
2022/02/04 00:25:11;;;;;;;30.75;12.95;;;;;;;7.16;100.00;101294.59;5260170;28;20028;-77
2022/02/04 00:27:42;;;;;;;28.42;11.98;;;;;;;7.17;100.00;101294.47;5286757;28;20390;-77
2022/02/04 00:30:20;;;;;;;26.20;11.73;;;;;;;7.17;100.00;101304.28;5287711;28;20027;-77
2022/02/04 00:32:52;;;;;;;29.50;13.40;;;;;;;7.16;100.00;101300.78;5281021;28;20026;-77
2022/02/04 00:41:05;;;;;;;29.52;12.48;;;;;;;7.19;100.00;101297.03;5274824;28;20516;-77
2022/02/04 00:43:37;;;;;;;26.83;11.15;;;;;;;7.20;100.00;101299.56;5287168;28;20036;-77
2022/02/04 00:48:48;;;;;;;29.52;12.27;;;;;;;7.20;100.00;101294.22;5287211;28;20027;-77
2022/02/04 00:51:28;;;;;;;27.80;12.20;;;;;;;7.24;100.00;101290.31;5269074;28;20019;-77
2022/02/04 00:57:04;;;;;;;22.10;10.95;;;;;;;7.26;100.00;101275.00;5286712;28;20038;-76
2022/02/04 01:13:36;;;;;;;21.48;10.95;;;;;;;7.24;100.00;101281.47;5274819;28;20472;-77
2022/02/04 01:27:21;;;;;;;19.95;9.43;;;;;;;7.26;100.00;101290.16;5282897;28;20114;-77
2022/02/04 01:32:22;;;;;;;18.63;9.40;;;;;;;7.32;100.00;101291.44;5279404;28;20019;-77
2022/02/04 01:34:53;;;;;;;22.30;9.35;;;;;;;7.33;100.00;101288.66;5267986;28;20035;-77
2022/02/04 01:37:24;;;;;;;17.38;7.72;;;;;;;7.31;100.00;101289.75;5286674;28;20114;-77
2022/02/04 01:39:54;;;;;;;15.45;7.63;;;;;;;7.34;100.00;101292.19;5286351;28;20026;-78
2022/02/04 01:42:24;;;;;;;19.73;8.25;;;;;;;7.37;100.00;101289.22;5285718;28;20035;-78
2022/02/04 01:44:55;;;;;;;19.30;7.80;;;;;;;7.37;100.00;101287.38;5286275;28;20028;-78
2022/02/04 01:47:25;;;;;;;20.75;7.13;;;;;;;7.39;100.00;101288.13;5267583;28;20024;-78
2022/02/04 01:49:56;;;;;;;15.35;7.55;;;;;;;7.37;100.00;101287.38;5286338;28;20058;-78
2022/02/04 01:52:27;;;;;;;16.20;7.43;;;;;;;7.42;100.00;101277.16;5267901;28;20028;-78
2022/02/04 01:54:58;;;;;;;15.07;6.00;;;;;;;7.43;100.00;101278.00;5285656;28;20027;-78
2022/02/04 01:57:28;;;;;;;14.80;6.85;;;;;;;7.40;100.00;101271.13;5286187;28;20436;-78
2022/02/04 01:59:59;;;;;;;15.13;6.30;;;;;;;7.37;100.00;101267.88;5286753;28;20024;-78
2022/02/04 02:02:29;;;;;;;14.27;6.28;;;;;;;7.38;100.00;101259.75;5287436;28;20447;-78
2022/02/04 02:05:00;;;;;;;13.80;6.45;;;;;;;7.37;100.00;101257.19;5286575;28;20096;-78
2022/02/04 02:07:32;;;;;;;13.82;6.07;;;;;;;7.38;100.00;101251.72;5286450;28;20019;-78
2022/02/04 02:10:07;;;;;;;14.57;6.15;;;;;;;7.40;100.00;101249.75;5286053;28;20028;-78
2022/02/04 02:12:49;;;;;;;11.27;5.97;;;;;;;7.40;100.00;101246.25;5267562;28;20020;-78
2022/02/04 02:46:26;;;;;;;8.32;4.60;;;;;;;7.49;100.00;101224.09;5286168;28;20031;-80
2022/02/04 02:51:56;;;;;;;8.50;4.30;;;;;;;7.50;100.00;101226.59;5285436;28;20386;-80
2022/02/04 03:00:12;;;;;;;13.85;4.57;;;;;;;7.57;100.00;101212.69;5286882;28;20498;-79
2022/02/04 03:02:43;;;;;;;6.95;4.13;;;;;;;7.55;100.00;101212.00;5286812;28;20057;-79
2022/02/04 03:05:13;;;;;;;9.10;3.90;;;;;;;7.51;100.00;101222.09;5286558;28;20111;-79
2022/02/04 03:07:44;;;;;;;8.90;4.13;;;;;;;7.52;100.00;101208.59;5284924;28;20028;-80
2022/02/04 03:10:15;;;;;;;7.45;3.80;;;;;;;7.57;100.00;101223.38;5285674;28;20051;-79
2022/02/04 03:12:46;;;;;;;8.52;4.10;;;;;;;7.58;100.00;101219.72;5267485;28;20605;-80
2022/02/04 03:15:16;;;;;;;8.13;3.60;;;;;;;7.59;100.00;101221.44;5285383;28;20047;-80
2022/02/04 03:17:58;;;;;;;8.65;4.20;;;;;;;7.57;100.00;101215.38;5285331;28;20439;-80
2022/02/04 03:20:29;;;;;;;9.60;4.35;;;;;;;7.52;100.00;101211.28;5285412;28;20485;-79
2022/02/04 03:23:00;;;;;;;15.05;3.88;;;;;;;7.56;100.00;101203.00;5285351;28;20176;-79
2022/02/04 03:25:37;;;;;;;8.68;4.00;;;;;;;7.55;100.00;101207.50;5271351;28;20107;-79
2022/02/04 03:28:14;;;;;;;10.90;4.88;;;;;;;7.57;100.00;101221.56;5285671;28;20020;-79
2022/02/04 03:30:46;;;;;;;10.75;4.32;;;;;;;7.61;100.00;101216.78;5265374;28;20020;-79
2022/02/04 03:33:19;;;;;;;8.68;4.63;;;;;;;7.58;100.00;101217.06;5280626;28;20028;-79
2022/02/04 03:35:50;;;;;;;8.68;5.20;;;;;;;7.60;100.00;101207.94;5284882;28;20035;-79
2022/02/04 03:38:20;;;;;;;9.93;4.82;;;;;;;7.57;100.00;101200.19;5266445;28;20380;-79
2022/02/04 03:40:51;;;;;;;11.75;5.18;;;;;;;7.63;100.00;101209.47;5284533;28;20424;-79
2022/02/04 03:43:21;;;;;;;10.30;4.88;;;;;;;7.60;100.00;101210.59;5284953;28;20038;-79
2022/02/04 03:45:52;;;;;;;10.18;5.05;;;;;;;7.58;100.00;101206.38;5286828;28;20027;-80
2022/02/04 03:48:22;;;;;;;11.35;5.25;;;;;;;7.58;100.00;101209.03;5287053;28;20063;-79
2022/02/04 03:50:53;;;;;;;11.02;4.90;;;;;;;7.58;100.00;101195.69;5285045;28;20081;-80
2022/02/04 03:53:23;;;;;;;11.52;4.50;;;;;;;7.53;100.00;101188.97;5285390;28;20024;-79
2022/02/04 03:55:55;;;;;;;8.30;4.00;;;;;;;7.56;100.00;101189.66;5285737;28;20028;-80
2022/02/04 03:58:25;;;;;;;9.07;4.70;;;;;;;7.56;100.00;101187.00;5286127;28;20031;-79
2022/02/04 04:00:56;;;;;;;10.35;4.40;;;;;;;7.53;100.00;101182.78;5285384;28;20027;-80
2022/02/04 04:03:26;;;;;;;11.50;4.25;;;;;;;7.54;100.00;101187.13;5284986;28;20023;-79
2022/02/04 04:05:57;;;;;;;8.00;3.88;;;;;;;7.58;100.00;101183.22;5285105;28;20035;-80
2022/02/04 04:08:27;;;;;;;8.27;4.20;;;;;;;7.63;100.00;101182.75;5285685;28;20027;-79
2022/02/04 04:10:58;;;;;;;10.55;4.50;;;;;;;7.61;100.00;101190.94;5288570;28;20091;-79
2022/02/04 04:13:28;;;;;;;8.00;3.78;;;;;;;7.62;100.00;101192.59;5289495;28;20506;-79
2022/02/04 04:15:59;;;;;;;9.85;4.25;;;;;;;7.59;100.00;101178.72;5289303;28;20123;-80
2022/02/04 04:18:29;;;;;;;6.57;3.70;;;;;;;7.60;100.00;101181.22;5289972;28;20023;-80
2022/02/04 04:21:01;;;;;;;8.82;3.90;;;;;;;7.59;100.00;101192.06;5290232;28;20023;-80
2022/02/04 04:23:31;;;;;;;7.30;3.90;;;;;;;7.56;100.00;101187.81;5290755;28;20225;-80
2022/02/04 04:26:02;;;;;;;8.13;4.05;;;;;;;7.60;100.00;101191.91;5276352;28;20038;-80
2022/02/04 04:28:33;;;;;;;8.20;4.25;;;;;;;7.64;100.00;101193.34;5290199;28;20031;-80
2022/02/04 04:31:03;;;;;;;7.00;3.47;;;;;;;7.65;100.00;101178.16;5266604;28;20066;-80
2022/02/04 04:33:34;;;;;;;9.80;3.85;;;;;;;7.63;100.00;101182.75;5252960;28;20573;-80
2022/02/04 04:36:04;;;;;;;5.68;3.42;;;;;;;7.60;100.00;101181.22;5272310;28;20031;-79
2022/02/04 04:38:41;;;;;;;5.93;3.42;;;;;;;7.63;100.00;101185.44;5290478;28;20023;-80
2022/02/04 05:25:44;;;;;;;8.45;3.47;;;;;;;7.63;100.00;101182.75;5290330;28;20103;-79
2022/02/04 05:26:27;;;;;;;9.18;3.03;;;;;;;7.66;100.00;101134.44;5275902;28;20024;-81
2022/02/04 05:29:04;;;;;;;8.15;3.28;;;;;;;7.63;100.00;101146.25;5273115;28;20062;-81
2022/02/04 05:31:35;;;;;;;10.10;3.85;;;;;;;7.64;100.00;101147.09;5287636;28;20085;-81
2022/02/04 05:34:06;;;;;;;16.02;6.90;;;;;;;7.64;100.00;101149.78;5273383;28;20039;-81
2022/02/04 05:36:42;;;;;;;8.90;4.30;;;;;;;7.55;100.00;101153.28;5292918;28;20023;-81
2022/02/04 05:39:14;;;;;;;11.02;4.47;;;;;;;7.52;100.00;101152.53;5261085;28;20079;-81
2022/02/04 05:41:48;;;;;;;8.60;4.18;;;;;;;7.48;100.00;101148.50;5272854;28;20069;-81
2022/02/04 05:44:19;;;;;;;11.90;4.20;;;;;;;7.43;100.00;101150.72;5290721;28;20032;-81
2022/02/04 05:46:54;;;;;;;11.98;5.00;;;;;;;7.46;100.00;101154.94;5287416;28;20076;-81
2022/02/04 05:49:28;;;;;;;10.48;5.20;;;;;;;7.46;100.00;101147.78;5268672;28;20047;-82
2022/02/04 05:52:08;;;;;;;10.40;6.00;;;;;;;7.46;100.00;101141.59;5287973;28;20025;-81
2022/02/04 05:54:58;;;;;;;12.32;5.53;;;;;;;7.44;100.00;101136.41;5289856;28;20027;-82
2022/02/04 05:57:56;;;;;;;8.68;5.15;;;;;;;7.43;100.00;101142.72;5296219;28;20020;-81
2022/02/04 06:00:48;;;;;;;8.60;4.78;;;;;;;7.44;100.00;101138.22;5250749;28;20116;-80
2022/02/04 06:12:00;;;;;;;11.45;5.43;;;;;;;7.57;100.00;101122.75;5275259;28;20015;-79
2022/02/04 06:14:53;;;;;;;10.88;5.03;;;;;;;7.58;100.00;101118.25;5270058;28;20062;-80
2022/02/04 06:23:02;;;;;;;8.02;4.18;;;;;;;7.48;100.00;101108.44;5273451;28;20067;-78
2022/02/04 06:25:33;;;;;;;9.35;4.47;;;;;;;7.48;100.00;101105.78;5264368;28;20054;-77
2022/02/04 06:28:04;;;;;;;11.73;4.97;;;;;;;7.50;100.00;101114.47;5285839;28;20046;-78
2022/02/04 06:30:35;;;;;;;10.65;5.20;;;;;;;7.41;100.00;101119.81;5285606;28;20069;-78
2022/02/04 06:33:05;;;;;;;8.70;5.05;;;;;;;7.44;100.00;101115.03;5279381;28;20031;-78
2022/02/04 06:35:36;;;;;;;8.23;4.82;;;;;;;7.43;100.00;101118.69;5287195;28;20440;-83
2022/02/04 06:38:06;;;;;;;7.22;4.47;;;;;;;7.41;100.00;101112.63;5268075;28;20056;-78
2022/02/04 06:40:37;;;;;;;7.97;5.10;;;;;;;7.38;100.00;101110.28;5285274;28;20039;-77
2022/02/04 06:43:09;;;;;;;10.65;5.40;;;;;;;7.43;100.00;101101.81;5287525;28;20028;-78
2022/02/04 06:45:40;;;;;;;10.48;5.18;;;;;;;7.44;100.00;101109.69;5271548;28;20027;-78
2022/02/04 06:48:11;;;;;;;9.60;5.63;;;;;;;7.42;100.00;101125.00;5286707;28;20027;-79
2022/02/04 06:50:41;;;;;;;10.10;6.13;;;;;;;7.47;100.00;101109.41;5287556;28;20043;-80
2022/02/04 06:53:12;;;;;;;11.73;6.47;;;;;;;7.50;100.00;101111.81;5287229;28;20051;-79
2022/02/04 06:55:43;;;;;;;9.88;6.45;;;;;;;7.46;100.00;101113.06;5288620;28;20106;-79
2022/02/04 06:58:13;;;;;;;10.85;5.53;;;;;;;7.46;100.00;101106.88;5287638;28;20099;-80
2022/02/04 07:00:44;;;;;;;12.40;5.97;;;;;;;7.45;100.00;101114.06;5287296;28;20032;-80
2022/02/04 07:03:14;;;;;;;13.02;6.45;;;;;;;7.46;100.00;101112.22;5287814;28;20087;-79
2022/02/04 07:05:55;;;;;;;12.60;6.75;;;;;;;7.46;100.00;101106.88;5287902;28;20031;-79
2022/02/04 07:08:33;;;;;;;11.05;6.18;;;;;;;7.37;100.00;101108.56;5274826;28;20107;-76
2022/02/04 07:16:53;;;;;;;;;;;;;;;7.41;100.00;101101.13;5274436;28;20418;-79
2022/02/04 07:22:13;;;;;;;14.30;7.63;;;;;;;7.40;100.00;101097.63;5286742;28;20476;-80
2022/02/04 07:24:45;;;;;;;13.70;7.55;;;;;;;7.38;100.00;101088.03;5277249;28;20376;-79
2022/02/04 07:27:17;;;;;;;14.32;6.47;;;;;;;7.38;100.00;101096.06;5283025;28;20036;-80
2022/02/04 07:29:50;;;;;;;11.80;7.13;;;;;;;7.41;100.00;101093.94;5269986;28;20446;-80
2022/02/04 07:35:20;;;;;;;14.20;6.70;;;;;;;7.35;100.00;101086.50;5287089;28;20034;-80
2022/02/04 07:43:24;;;;;;;13.55;6.40;;;;;;;7.43;100.00;101100.00;5292298;28;20047;-79
2022/02/04 07:45:54;;;;;;;9.13;5.60;;;;;;;7.39;100.00;101095.09;5289352;28;20426;-78
2022/02/04 07:48:25;;;;;;;10.80;6.50;;;;;;;7.46;100.00;101091.72;5288918;28;20030;-78
2022/02/04 07:50:56;;;;;;;11.52;5.65;;;;;;;7.45;100.00;101100.72;5288545;28;20041;-80
2022/02/04 07:53:30;;;;;;;9.95;6.18;;;;;;;7.43;100.00;101094.69;5290150;28;20023;-80
2022/02/04 07:56:02;;;;;;;10.13;5.30;;;;;;;7.50;100.00;101094.94;5289350;28;20034;-80
2022/02/04 07:58:32;;;;;;;9.65;5.70;;;;;;;7.45;100.00;101095.38;5289656;28;20023;-82
2022/02/04 08:01:03;;;;;;;12.32;5.45;;;;;;;7.49;100.00;101080.75;5271245;28;20024;-79
2022/02/04 08:03:40;;;;;;;10.20;5.55;;;;;;;7.56;100.00;101077.53;5289011;28;20430;-79
2022/02/04 08:06:16;;;;;;;8.13;4.55;;;;;;;7.62;100.00;101076.94;5289098;28;20024;-79
2022/02/04 08:08:56;;;;;;;8.05;5.10;;;;;;;7.63;100.00;101081.31;5289427;28;20031;-79
2022/02/04 08:14:19;;;;;;;8.73;4.72;;;;;;;7.74;100.00;101073.16;5291296;28;20096;-80
2022/02/04 08:49:29;;;;;;;7.93;4.18;;;;;;;7.90;100.00;101030.66;5280053;28;20095;-80
2022/02/04 08:54:57;;;;;;;8.15;4.97;;;;;;;7.97;100.00;101028.25;5280412;28;20039;-79
2022/02/04 09:05:40;;;;;;;9.23;4.60;;;;;;;8.09;100.00;101010.25;5272811;28;20039;-80
2022/02/04 09:11:04;;;;;;;6.75;3.83;;;;;;;8.18;100.00;101030.72;5274861;28;20363;-80
2022/02/04 09:19:14;;;;;;;6.97;4.25;;;;;;;8.24;100.00;101022.13;5273569;28;20118;-80
2022/02/04 09:24:17;;;;;;;7.43;4.07;;;;;;;8.32;100.00;101006.19;5270015;28;20487;-80
2022/02/04 09:26:47;;;;;;;9.30;4.25;;;;;;;8.30;100.00;101018.88;5278199;28;20046;-80
2022/02/04 09:29:18;;;;;;;6.50;3.53;;;;;;;8.25;100.00;101013.97;5251801;28;20023;-80
2022/02/04 09:31:49;;;;;;;11.35;4.53;;;;;;;8.21;100.00;101017.91;5279186;28;20023;-80
2022/02/04 09:34:19;;;;;;;7.57;3.83;;;;;;;8.27;100.00;101009.28;5268119;28;20054;-80
2022/02/04 09:36:50;;;;;;;7.65;4.55;;;;;;;8.27;100.00;101008.47;5286301;28;20088;-80
2022/02/04 09:39:20;;;;;;;6.25;4.03;;;;;;;8.22;100.00;101002.72;5246584;28;20517;-80
2022/02/04 09:41:51;;;;;;;8.48;4.10;;;;;;;8.34;100.00;100990.03;5246302;28;20074;-84
2022/02/04 09:44:21;;;;;;;6.05;3.97;;;;;;;8.38;100.00;101000.28;5266704;28;20035;-84
2022/02/04 09:46:55;;;;;;;7.70;3.97;;;;;;;8.34;100.00;100996.19;5266857;28;20031;-83
2022/02/04 09:49:30;;;;;;;8.07;4.20;;;;;;;8.41;100.00;101004.50;5287213;28;20058;-82
2022/02/04 10:14:58;;;;;;;6.35;3.55;;;;;;;8.44;100.00;100956.94;5288332;28;20121;-82
2022/02/04 10:17:29;;;;;;;5.15;3.35;;;;;;;8.55;100.00;100970.09;5256671;28;20023;-82
2022/02/04 10:20:00;;;;;;;7.32;4.20;;;;;;;8.64;100.00;100943.44;5269763;28;20028;-83
2022/02/04 10:22:33;;;;;;;5.93;3.38;;;;;;;8.62;100.00;100959.63;5270366;28;20030;-80
2022/02/04 10:27:55;;;;;;;5.82;3.20;;;;;;;8.65;100.00;100953.13;5257772;28;20039;-79
2022/02/04 10:30:31;;;;;;;5.13;2.95;;;;;;;8.56;100.00;100933.47;5267596;28;20023;-81
2022/02/04 10:33:02;;;;;;;4.75;2.65;;;;;;;8.72;100.00;100940.81;5270582;28;20062;-79
2022/02/04 10:35:35;;;;;;;7.70;3.17;;;;;;;8.77;100.00;100939.38;5268685;28;20043;-81
2022/02/04 10:38:23;;;;;;;4.43;2.47;;;;;;;8.57;100.00;100944.00;5266235;28;20023;-81
2022/02/04 10:44:18;;;;;;;4.13;2.40;;;;;;;8.79;100.00;100923.19;5231011;28;1125952;-79
2022/02/04 10:46:58;;;;;;;5.43;2.47;;;;;;;8.91;100.00;100918.44;5284911;28;20102;-79
2022/02/04 10:52:36;;;;;;;8.15;3.15;;;;;;;8.73;100.00;100905.88;5289375;28;20028;-81
2022/02/04 11:00:40;;;;;;;9.07;3.28;;;;;;;8.75;100.00;100882.53;5279612;28;20028;-82
2022/02/04 11:03:13;;;;;;;5.00;2.95;;;;;;;8.70;100.00;100868.78;5292622;28;20526;-79
2022/02/04 11:06:06;;;;;;;7.05;3.05;;;;;;;8.59;100.00;100855.63;5273894;28;20027;-79
2022/02/04 11:34:08;;;;;;;8.98;4.78;;;;;;;8.74;100.00;100794.41;5294128;28;20471;-79
2022/02/04 11:54:35;;;;;;;10.27;5.40;;;;;;;8.32;100.00;100749.56;5278613;28;20527;-80
2022/02/04 11:57:26;;;;;;;9.07;4.90;;;;;;;8.26;100.00;100756.38;5275242;28;20032;-81
2022/02/04 12:00:15;;;;;;;9.40;5.03;;;;;;;8.31;100.00;100750.56;5288261;28;20026;-81
2022/02/04 12:03:02;;;;;;;7.65;4.65;;;;;;;8.27;100.00;100744.69;5273819;28;20039;-81
2022/02/04 12:05:34;;;;;;;10.05;5.65;;;;;;;8.37;100.00;100738.47;5263943;28;20146;-80
2022/02/04 12:08:17;;;;;;;8.77;5.13;;;;;;;8.33;100.00;100719.19;5288023;28;20022;-80
2022/02/04 12:10:50;;;;;;;9.27;4.32;;;;;;;8.42;100.00;100723.63;5287999;28;20039;-81
2022/02/04 12:13:22;;;;;;;8.57;4.70;;;;;;;8.42;100.00;100707.59;5290861;28;20097;-81
2022/02/04 12:16:07;;;;;;;9.60;5.20;;;;;;;8.48;100.00;100717.69;5291067;28;20020;-80
2022/02/04 12:18:39;;;;;;;9.20;4.43;;;;;;;8.54;100.00;100717.06;5289406;28;20047;-79
2022/02/04 12:21:13;;;;;;;7.80;3.88;;;;;;;8.62;100.00;100712.75;5287619;28;20114;-80
2022/02/04 12:23:49;;;;;;;8.43;4.85;;;;;;;8.72;100.00;100713.47;5269452;28;20049;-80
2022/02/04 12:26:27;;;;;;;8.43;4.55;;;;;;;8.75;100.00;100705.16;5269928;28;20144;-81
2022/02/04 12:29:01;;;;;;;9.82;4.47;;;;;;;8.79;100.00;100693.16;5269605;28;20058;-80
2022/02/04 12:32:03;;;;;;;10.82;4.93;;;;;;;8.79;100.00;100680.59;5280836;28;20012;-81
2022/02/04 12:34:35;;;;;;;8.90;4.82;;;;;;;8.79;100.00;100677.09;5273816;28;20031;-80
2022/02/04 12:37:05;;;;;;;9.02;4.57;;;;;;;8.91;100.00;100683.00;5287788;28;20073;-80
2022/02/04 12:39:36;;;;;;;10.25;5.07;;;;;;;8.87;100.00;100677.13;5287687;28;20055;-80
2022/02/04 12:42:08;;;;;;;8.70;4.45;;;;;;;8.75;100.00;100662.34;5269016;28;20023;-79
2022/02/04 12:44:42;;;;;;;8.23;4.20;;;;;;;8.85;100.00;100663.06;5269228;28;20060;-80
2022/02/04 12:47:15;;;;;;;11.60;4.53;;;;;;;8.91;100.00;100662.44;5253253;28;20386;-79
2022/02/04 12:49:49;;;;;;;10.45;4.05;;;;;;;8.87;100.00;100637.00;5288035;28;20024;-79
2022/02/04 12:52:26;;;;;;;8.35;4.03;;;;;;;9.09;100.00;100622.22;5270124;28;20025;-79
2022/02/04 12:55:22;;;;;;;12.27;4.60;;;;;;;9.07;100.00;100624.19;5287721;28;20039;-79
2022/02/04 13:03:29;;;;;;;8.15;3.53;;;;;;;9.01;100.00;100632.88;5289392;28;20055;-80
2022/02/04 13:09:21;;;;;;;9.85;4.00;;;;;;;8.93;100.00;100616.78;5274254;28;20507;-80
2022/02/04 13:11:40;;;;;;;8.48;3.65;;;;;;;8.96;100.00;100629.84;5260467;28;20044;-79
2022/02/04 13:14:12;;;;;;;7.03;3.65;;;;;;;8.85;100.00;100627.47;5289140;28;20056;-79
2022/02/04 13:16:42;;;;;;;8.55;3.53;;;;;;;8.81;100.00;100624.28;5289430;28;20681;-80
2022/02/04 13:19:13;;;;;;;10.23;3.60;;;;;;;8.81;100.00;100624.28;5289041;28;20023;-79
2022/02/04 13:21:43;;;;;;;9.07;3.85;;;;;;;8.79;100.00;100613.75;5250178;28;20376;-79
2022/02/04 13:24:16;;;;;;;6.65;3.33;;;;;;;8.77;100.00;100599.66;5284243;28;20035;-79
2022/02/04 13:26:47;;;;;;;11.52;4.75;;;;;;;8.70;100.00;100612.00;5289234;28;20039;-80
2022/02/04 13:29:24;;;;;;;7.05;3.60;;;;;;;8.75;100.00;100598.16;5270372;28;20030;-79
2022/02/04 13:31:55;;;;;;;8.13;2.70;;;;;;;8.74;100.00;100585.81;5285207;28;20023;-82
2022/02/04 13:34:28;;;;;;;8.95;3.25;;;;;;;8.71;100.00;100588.78;5267576;28;20268;-79
2022/02/04 13:37:04;;;;;;;11.95;3.47;;;;;;;8.70;100.00;100587.94;5278345;28;20031;-79
2022/02/04 13:45:29;;;;;;;12.68;3.20;;;;;;;8.48;100.00;100572.44;5277378;28;20024;-79
2022/02/04 13:48:06;;;;;;;7.97;2.00;;;;;;;8.43;100.00;100577.44;5259530;28;20116;-79
2022/02/04 13:56:35;;;;;;;4.40;1.75;;;;;;;8.14;100.00;100565.22;5275049;28;20066;-79
2022/02/04 14:02:12;;;;;;;4.60;2.42;;;;;;;8.16;100.00;100579.25;5275628;28;20038;-79
2022/02/04 14:04:56;;;;;;;5.85;1.45;;;;;;;8.12;100.00;100559.19;5277798;28;20032;-80
2022/02/04 14:07:51;;;;;;;2.13;1.33;;;;;;;8.12;100.00;100571.72;5251509;28;20027;-82
2022/02/04 14:10:30;;;;;;;2.65;1.27;;;;;;;8.10;100.00;100571.03;5278078;28;20115;-78
2022/02/04 14:13:06;;;;;;;3.92;1.23;;;;;;;8.02;100.00;100556.59;5275840;28;20020;-79
2022/02/04 14:15:42;;;;;;;3.63;1.40;;;;;;;7.96;100.00;100561.75;5276049;28;20035;-79
2022/02/04 14:18:13;;;;;;;3.75;1.75;;;;;;;7.99;100.00;100556.94;5258805;28;20024;-79
2022/02/04 14:20:45;;;;;;;4.43;1.80;;;;;;;7.96;100.00;100556.41;5276685;28;20034;-79
2022/02/04 14:23:16;;;;;;;6.47;2.17;;;;;;;7.91;100.00;100577.41;5242786;28;20056;-79
2022/02/04 14:25:57;;;;;;;2.67;1.85;;;;;;;7.90;100.00;100581.09;5276932;28;20031;-79
2022/02/04 14:36:49;;;;;;;3.00;1.50;;;;;;;7.65;100.00;100620.09;5276450;28;20080;-80
2022/02/04 15:01:50;;;;;;;1.50;0.60;;;;;;;4.91;100.00;100814.06;5276857;28;20110;-79
2022/02/04 15:07:08;;;;;;;2.67;0.40;;;;;;;4.79;100.00;100825.75;5275570;28;20075;-79
2022/02/04 15:09:46;;;;;;;2.13;0.40;;;;;;;4.71;100.00;100844.16;5275386;28;20028;-79
2022/02/04 15:12:17;;;;;;;4.38;0.60;;;;;;;4.71;100.00;100852.13;5274987;28;20023;-79
2022/02/04 15:14:48;;;;;;;2.28;0.50;;;;;;;4.71;100.00;100868.06;5257396;28;20807;-79
2022/02/04 15:17:18;;;;;;;3.80;0.75;;;;;;;4.78;100.00;100879.88;5258014;28;20102;-79
2022/02/04 15:19:50;;;;;;;4.22;0.70;;;;;;;4.77;100.00;100883.53;5277088;28;20031;-80
2022/02/04 15:22:24;;;;;;;4.70;1.02;;;;;;;4.78;100.00;100908.28;5276633;28;20032;-80
2022/02/04 15:24:59;;;;;;;1.60;0.70;;;;;;;4.70;100.00;100911.56;5276643;28;20047;-80
2022/02/04 15:27:32;;;;;;;2.40;1.30;;;;;;;4.65;100.00;100916.41;5264793;28;20027;-80
2022/02/04 15:30:03;;;;;;;2.92;0.40;;;;;;;4.59;100.00;100928.41;5258702;28;20066;-80
2022/02/04 15:32:34;;;;;;;2.35;0.60;;;;;;;4.59;100.00;100936.38;5276611;28;20020;-80
2022/02/04 15:35:05;;;;;;;2.90;0.82;;;;;;;4.57;100.00;100946.28;5238866;28;20119;-78
2022/02/04 15:37:35;;;;;;;5.32;0.80;;;;;;;4.54;100.00;100957.16;5273745;28;20093;-80
2022/02/04 15:40:06;;;;;;;3.28;0.60;;;;;;;4.51;100.00;100964.53;5256309;28;20028;-80
2022/02/04 15:42:42;;;;;;;1.95;0.45;;;;;;;4.48;100.00;100983.38;5277722;28;20028;-83
2022/02/04 15:45:38;;;;;;;2.80;0.98;;;;;;;4.50;100.00;100992.91;5259369;28;20049;-79
2022/02/04 15:50:46;;;;;;;4.38;2.60;;;;;;;4.46;100.00;101007.41;5275272;28;20036;-78
2022/02/04 15:53:35;;;;;;;5.47;2.33;;;;;;;4.44;100.00;101017.31;5275831;28;20376;-80
2022/02/04 16:04:01;;;;;;;2.35;1.50;;;;;;;4.28;100.00;101062.00;5276950;28;20510;-79
2022/02/04 16:06:31;;;;;;;7.07;3.10;;;;;;;4.26;100.00;101064.75;5262333;28;20088;-80
2022/02/04 16:09:03;;;;;;;1.40;1.10;;;;;;;4.26;100.00;101061.25;5262987;28;20016;-80
2022/02/04 16:14:28;;;;;;;1.45;0.60;;;;;;;4.25;100.00;101089.63;5279648;28;20055;-80
2022/02/04 16:17:08;;;;;;;5.65;1.15;;;;;;;4.23;100.00;101091.56;5262424;28;20514;-79
2022/02/04 16:19:46;;;;;;;1.23;0.98;;;;;;;4.23;100.00;101101.34;5279824;28;20027;-78
2022/02/04 16:22:42;;;;;;;4.60;1.40;;;;;;;4.25;100.00;101115.34;5279227;28;20024;-80
2022/02/04 16:30:13;;;;;;;8.10;1.98;;;;;;;4.25;100.00;101129.47;5279130;28;20111;-80
2022/02/04 16:32:44;;;;;;;4.28;1.35;;;;;;;4.32;100.00;101135.16;5262560;28;20022;-80
2022/02/04 16:35:14;;;;;;;7.88;1.63;;;;;;;4.29;100.00;101138.88;5278605;28;20035;-80
2022/02/04 16:37:50;;;;;;;8.65;1.50;;;;;;;4.34;100.00;101141.19;5280969;28;20475;-78
2022/02/04 16:40:21;;;;;;;3.97;1.55;;;;;;;4.31;100.00;101160.84;5279486;28;20023;-79
2022/02/04 16:42:51;;;;;;;6.25;2.40;;;;;;;4.27;100.00;101172.72;5249217;28;20036;-81
2022/02/04 16:45:23;;;;;;;6.05;2.40;;;;;;;4.16;100.00;101181.47;5270990;28;20040;-81
2022/02/04 16:47:57;;;;;;;5.90;1.35;;;;;;;4.07;100.00;101181.34;5280496;28;20008;-78
2022/02/04 16:50:27;;;;;;;7.93;1.10;;;;;;;4.00;100.00;101196.03;5269146;28;20024;-80
2022/02/04 16:52:58;;;;;;;4.40;1.20;;;;;;;3.94;100.00;101199.16;5261755;28;20027;-77
2022/02/04 16:55:28;;;;;;;4.43;1.92;;;;;;;3.87;100.00;101207.56;5278061;28;20024;-77
2022/02/04 16:57:59;;;;;;;5.85;1.85;;;;;;;3.82;100.00;101215.03;5276680;28;20054;-77
2022/02/04 17:00:29;;;;;;;6.45;1.45;;;;;;;3.81;100.00;101226.59;5276483;28;20027;-77
2022/02/04 17:03:06;;;;;;;4.40;1.90;;;;;;;3.81;100.00;101239.00;5275865;28;20023;-77
2022/02/04 17:05:48;;;;;;;5.10;1.73;;;;;;;3.80;100.00;101242.63;5277261;28;20086;-77
2022/02/04 17:11:10;;;;;;;9.27;2.67;;;;;;;3.74;100.00;101251.06;5276668;28;20023;-77
2022/02/04 17:13:41;;;;;;;7.60;1.70;;;;;;;3.69;100.00;101262.00;5260176;28;20031;-77
2022/02/04 17:16:12;;;;;;;14.23;5.03;;;;;;;3.63;100.00;101268.59;5275731;28;20027;-77
2022/02/04 17:18:45;;;;;;;9.45;2.83;;;;;;;3.56;100.00;101275.28;5257748;28;20066;-77
2022/02/04 17:21:22;;;;;;;14.23;4.68;;;;;;;3.49;100.00;101279.34;5276529;28;20039;-77
2022/02/04 17:23:54;;;;;;;9.48;2.33;;;;;;;3.50;100.00;101290.81;5275133;28;20027;-77
2022/02/04 17:26:25;;;;;;;15.45;2.13;;;;;;;3.53;100.00;101286.16;5275662;28;20097;-77
2022/02/04 17:28:55;;;;;;;9.55;3.38;;;;;;;3.60;100.00;101303.31;5259559;28;20024;-77
2022/02/04 17:31:26;;;;;;;17.70;5.40;;;;;;;3.62;100.00;101300.56;5279288;28;20138;-81
2022/02/04 17:33:56;;;;;;;17.38;3.65;;;;;;;3.62;100.00;101308.53;5279417;28;20091;-80
2022/02/04 17:36:31;;;;;;;9.90;3.78;;;;;;;3.57;100.00;101323.94;5278457;28;20028;-80
2022/02/04 17:39:10;;;;;;;15.05;2.55;;;;;;;3.58;100.00;101322.97;5278741;28;20021;-81
2022/02/04 17:41:41;;;;;;;11.00;3.30;;;;;;;3.57;100.00;101329.22;5259700;28;20027;-80
2022/02/04 17:44:14;;;;;;;12.18;3.22;;;;;;;3.56;100.00;101332.81;5261869;28;20615;-81
2022/02/04 17:46:46;;;;;;;15.23;5.53;;;;;;;3.54;100.00;101340.91;5261441;28;20024;-81
2022/02/04 17:49:24;;;;;;;16.58;4.30;;;;;;;3.54;100.00;101340.03;5277208;28;20027;-80
2022/02/04 17:52:01;;;;;;;29.27;13.45;;;;;;;3.54;100.00;101338.25;5260425;28;20417;-81
2022/02/04 17:54:41;;;;;;;16.50;3.85;;;;;;;3.58;100.00;101346.84;5245240;28;20104;-81
2022/02/04 17:57:17;;;;;;;19.85;8.18;;;;;;;3.57;100.00;101353.09;5261232;28;20024;-80
2022/02/04 18:00:06;;;;;;;56.13;23.38;;;;;;;3.51;100.00;101359.66;5261545;28;20578;-80
2022/02/04 18:02:42;;;;;;;24.02;7.20;;;;;;;3.47;100.00;101363.53;5263905;28;20502;-80
2022/02/04 18:08:09;;;;;;;24.98;9.18;;;;;;;3.49;100.00;101364.25;5280090;28;20063;-81
2022/02/04 18:10:40;;;;;;;15.93;5.75;;;;;;;3.49;100.00;101366.06;5279351;28;20023;-80
2022/02/04 18:13:11;;;;;;;18.45;6.07;;;;;;;3.42;100.00;101370.94;5278946;28;20022;-80
2022/02/04 18:15:42;;;;;;;25.95;4.80;;;;;;;3.40;100.00;101372.00;5260524;28;20027;-81
2022/02/04 18:18:16;;;;;;;12.40;3.40;;;;;;;3.38;100.00;101380.06;5260570;28;20470;-80
2022/02/04 18:20:47;;;;;;;16.77;4.10;;;;;;;3.41;100.00;101385.16;5278426;28;20051;-80
2022/02/04 18:23:20;;;;;;;13.25;3.88;;;;;;;3.47;100.00;101392.69;5244663;28;20062;-80
2022/02/04 18:25:52;;;;;;;25.90;7.40;;;;;;;3.54;100.00;101395.75;5256968;28;20443;-80